Time;durP1;ratioP1;P1;durP2;ratioP2;P2;SDS_P1;SDS_P2;PMS_P1;PMS_P2;Temp;Humidity;BMP_temperature;BMP_pressure;BME280_temperature;BME280_humidity;BME280_pressure;Samples;Min_cycle;Max_cycle;Signal;HPM_P1;HPM_P2
2022/08/21 00:00:19;;;;;;;;;;;;;;;22.42;100.00;99947.28;3054450;19;1001;-52
2022/08/21 00:01:22;;;;;;;;;;;;;;;22.35;100.00;99940.88;3054909;19;1209;-51
2022/08/21 00:02:28;;;;;;;;;;;;;;;22.28;100.00;99934.50;3054301;19;1179;-53
2022/08/21 00:03:30;;;;;;;;;;;;;;;22.21;100.00;99926.25;3053594;19;1101;-51
2022/08/21 00:04:34;;;;;;;;;;;;;;;22.15;100.00;99926.09;3052284;19;1845;-51
2022/08/21 00:05:38;;;;;;;;;;;;;;;22.09;100.00;99929.56;3048607;19;1213;-51
2022/08/21 00:06:43;;;;;;;;;;;;;;;22.04;100.00;99931.97;3047160;19;1455;-52
2022/08/21 00:07:45;;;;;;;;;;;;;;;21.99;100.00;99923.50;3047435;19;1139;-53
2022/08/21 00:08:50;;;;;;;;;;;;;;;21.95;100.00;99928.47;3049066;19;953;-52
2022/08/21 00:09:52;;;;;;;;;;;;;;;21.90;100.00;99920.00;3049963;19;1452;-51
2022/08/21 00:10:56;;;;;;;;;;;;;;;21.87;100.00;99921.19;3049413;19;1217;-53
2022/08/21 00:11:58;;;;;;;;;;;;;;;21.81;100.00;99916.50;3049683;19;1148;-52
2022/08/21 00:13:03;;;;;;;;;;;;;;;21.79;100.00;99913.09;3048752;19;1470;-53
2022/08/21 00:14:07;;;;;;;;;;;;;;;21.75;100.00;99910.91;3055709;19;1170;-51
2022/08/21 00:15:12;;;;;;;;;;;;;;;21.72;100.00;99908.59;3057292;19;1652;-52
2022/08/21 00:16:14;;;;;;;;;;;;;;;21.70;100.00;99913.34;3057677;19;1209;-51
2022/08/21 00:17:19;;;;;;;;;;;;;;;21.67;100.00;99914.53;3057434;19;1042;-52
2022/08/21 00:18:23;;;;;;;;;;;;;;;21.64;100.00;99908.63;3055966;19;1563;-51
2022/08/21 00:19:25;;;;;;;;;;;;;;;21.61;100.00;99901.72;3057543;19;1181;-51
2022/08/21 00:20:30;;;;;;;;;;;;;;;21.61;100.00;99904.41;3057954;19;1173;-51
2022/08/21 00:21:33;;;;;;;;;;;;;;;21.56;100.00;99904.94;3058368;19;1122;-50
2022/08/21 00:22:37;;;;;;;;;;;;;;;21.54;100.00;99903.44;3057257;19;1664;-52
2022/08/21 00:23:42;;;;;;;;;;;;;;;21.51;100.00;99901.06;3057855;19;1432;-51
2022/08/21 00:24:44;;;;;;;;;;;;;;;21.49;100.00;99903.13;3057890;19;1217;-51
2022/08/21 00:25:48;;;;;;;;;;;;;;;21.46;100.00;99904.34;3057053;19;1590;-51
2022/08/21 00:26:51;;;;;;;;;;;;;;;21.44;100.00;99892.81;3056102;19;1394;-50
2022/08/21 00:27:55;;;;;;;;;;;;;;;21.42;100.00;99894.84;3048630;19;1374;-50
2022/08/21 00:28:57;;;;;;;;;;;;;;;21.39;100.00;99899.78;3048672;19;1061;-52
2022/08/21 00:30:02;;;;;;;;;;;;;;;21.38;100.00;99892.66;3050456;19;1292;-51
2022/08/21 00:31:04;;;;;;;;;;;;;;;21.35;100.00;99891.16;3050262;19;1225;-51
2022/08/21 00:32:09;;;;;;;;;;;;;;;21.33;100.00;99897.78;3052376;19;1202;-52
2022/08/21 00:33:11;;;;;;;;;;;;;;;21.30;100.00;99895.44;3052277;19;1430;-50
2022/08/21 00:34:16;;;;;;;;;;;;;;;21.27;100.00;99890.34;3051805;19;1251;-48
2022/08/21 00:35:19;;;;;;;;;;;;;;;21.23;100.00;99889.03;3055127;19;1513;-51
2022/08/21 00:36:24;;;;;;;;;;;;;;;21.21;100.00;99891.91;3054574;19;1335;-51
2022/08/21 00:37:26;;;;;;;;;;;;;;;21.18;100.00;99887.69;3055805;19;1846;-50
2022/08/21 00:38:33;;;;;;;;;;;;;;;21.16;100.00;99889.69;3055844;19;1543;-54
2022/08/21 00:39:35;;;;;;;;;;;;;;;21.07;100.00;99869.06;3056309;19;1451;-50
2022/08/21 00:40:45;;;;;;;;;;;;;;;21.11;100.00;99889.38;3056800;19;1184;-52
2022/08/21 00:41:46;;;;;;;;;;;;;;;21.09;100.00;99888.72;3056951;19;1247;-52
2022/08/21 00:42:51;;;;;;;;;;;;;;;21.07;100.00;99889.91;3057617;19;1081;-50
2022/08/21 00:43:54;;;;;;;;;;;;;;;21.06;100.00;99888.22;3052708;19;1603;-51
2022/08/21 00:44:59;;;;;;;;;;;;;;;21.04;100.00;99885.66;3056158;19;1164;-51
2022/08/21 00:46:01;;;;;;;;;;;;;;;21.02;100.00;99876.84;3056856;19;1182;-51
2022/08/21 00:47:06;;;;;;;;;;;;;;;21.01;100.00;99880.59;3055168;19;1415;-50
2022/08/21 00:48:08;;;;;;;;;;;;;;;20.99;100.00;99877.25;3056066;19;1329;-51
2022/08/21 00:49:13;;;;;;;;;;;;;;;20.98;100.00;99880.97;3055593;19;1240;-52
2022/08/21 00:50:15;;;;;;;;;;;;;;;20.97;100.00;99878.44;3050616;19;1397;-49
2022/08/21 00:51:27;;;;;;;;;;;;;;;20.95;100.00;99870.47;3048892;19;1340;-50
2022/08/21 00:52:30;;;;;;;;;;;;;;;20.92;100.00;99878.94;3050627;19;1368;-51
2022/08/21 00:53:37;;;;;;;;;;;;;;;20.89;100.00;99863.00;3050210;19;971;-53
2022/08/21 00:54:40;;;;;;;;;;;;;;;20.87;100.00;99867.78;3051454;19;1010;-49
2022/08/21 00:55:49;;;;;;;;;;;;;;;20.84;100.00;99868.97;3050698;19;1063;-50
2022/08/21 00:56:54;;;;;;;;;;;;;;;20.81;100.00;99863.91;3051523;19;1856;-52
2022/08/21 00:58:03;;;;;;;;;;;;;;;20.78;100.00;99858.81;3056729;19;1155;-51
2022/08/21 00:59:05;;;;;;;;;;;;;;;20.78;100.00;99852.56;3054941;19;1523;-50
2022/08/21 01:00:10;;;;;;;;;;;;;;;20.78;100.00;99860.69;3056288;19;1056;-52
2022/08/21 01:01:12;;;;;;;;;;;;;;;20.76;100.00;99849.19;3056950;19;1601;-52
2022/08/21 01:02:18;;;;;;;;;;;;;;;20.74;100.00;99845.81;3056905;19;1060;-50
2022/08/21 01:03:22;;;;;;;;;;;;;;;20.74;100.00;99843.09;3055707;19;1596;-53
2022/08/21 01:04:27;;;;;;;;;;;;;;;20.71;100.00;99844.28;3056482;19;1244;-50
2022/08/21 01:05:29;;;;;;;;;;;;;;;20.69;100.00;99842.75;3056802;19;1230;-52
2022/08/21 01:06:33;;;;;;;;;;;;;;;20.65;100.00;99842.25;3055886;19;1667;-50
2022/08/21 01:07:35;;;;;;;;;;;;;;;20.60;100.00;99836.53;3056863;19;1281;-52
2022/08/21 01:08:40;;;;;;;;;;;;;;;20.54;100.00;99829.09;3057383;19;1006;-52
2022/08/21 01:09:47;;;;;;;;;;;;;;;20.51;100.00;99828.59;3055574;19;1378;-56
2022/08/21 01:10:52;;;;;;;;;;;;;;;20.48;100.00;99827.94;3056234;19;1293;-52
2022/08/21 01:11:59;;;;;;;;;;;;;;;20.43;100.00;99819.47;3056343;19;1013;-52
2022/08/21 01:13:04;;;;;;;;;;;;;;;20.42;100.00;99825.91;3049744;19;1048;-53
2022/08/21 01:14:06;;;;;;;;;;;;;;;20.40;100.00;99817.13;3049351;19;963;-52
2022/08/21 01:15:10;;;;;;;;;;;;;;;20.38;100.00;99813.75;3049927;19;1004;-52
2022/08/21 01:16:13;;;;;;;;;;;;;;;20.38;100.00;99813.75;3052215;19;1191;-53
2022/08/21 01:17:18;;;;;;;;;;;;;;;20.36;100.00;99810.34;3051724;19;1850;-58
2022/08/21 01:18:20;;;;;;;;;;;;;;;20.35;100.00;99807.78;3051172;19;983;-53
2022/08/21 01:19:26;;;;;;;;;;;;;;;20.33;100.00;99810.66;3051607;19;1034;-52
2022/08/21 01:20:28;;;;;;;;;;;;;;;20.30;100.00;99799.31;3057197;19;1111;-52
2022/08/21 01:21:36;;;;;;;;;;;;;;;20.31;100.00;99806.41;3057136;19;899;-52
2022/08/21 01:22:38;;;;;;;;;;;;;;;20.28;100.00;99795.94;3057075;19;978;-53
2022/08/21 01:23:43;;;;;;;;;;;;;;;20.27;100.00;99797.81;3057397;19;1051;-52
2022/08/21 01:24:45;;;;;;;;;;;;;;;20.26;100.00;99793.41;3055716;19;1156;-52
2022/08/21 01:25:50;;;;;;;;;;;;;;;20.26;100.00;99789.84;3057084;19;1163;-52
2022/08/21 01:26:52;;;;;;;;;;;;;;;20.25;100.00;99797.13;3056581;19;1347;-52
2022/08/21 01:27:56;;;;;;;;;;;;;;;20.24;100.00;99789.19;3054851;19;1443;-52
2022/08/21 01:29:05;;;;;;;;;;;;;;;20.24;100.00;99789.19;3051256;19;1498;-53
2022/08/21 01:30:12;;;;;;;;;;;;;;;20.25;100.00;99790.88;3052331;19;1688;-52
2022/08/21 01:31:14;;;;;;;;;;;;;;;20.24;100.00;99790.03;3055572;19;1290;-52
2022/08/21 01:32:20;;;;;;;;;;;;;;;20.26;100.00;99796.13;3054781;19;1786;-52
2022/08/21 01:33:22;;;;;;;;;;;;;;;20.27;100.00;99784.28;3054896;19;1366;-51
2022/08/21 01:34:26;;;;;;;;;;;;;;;20.28;100.00;99785.97;3055716;19;1160;-52
2022/08/21 01:35:29;;;;;;;;;;;;;;;20.30;100.00;99792.03;3048028;19;1404;-53
2022/08/21 01:36:33;;;;;;;;;;;;;;;20.32;100.00;99783.72;3050421;19;1000;-53
2022/08/21 01:37:35;;;;;;;;;;;;;;;20.33;100.00;99777.28;3049884;19;1884;-52
2022/08/21 01:38:40;;;;;;;;;;;;;;;20.34;100.00;99785.25;3051801;19;1015;-53
2022/08/21 01:39:42;;;;;;;;;;;;;;;20.36;100.00;99785.13;3051671;19;991;-53
2022/08/21 01:40:46;;;;;;;;;;;;;;;20.23;100.00;99754.97;3052780;19;971;-52
2022/08/21 01:41:48;;;;;;;;;;;;;;;20.36;100.00;99776.97;3050306;19;1017;-53
2022/08/21 01:42:53;;;;;;;;;;;;;;;20.38;100.00;99791.22;3056765;19;1027;-54
2022/08/21 01:43:55;;;;;;;;;;;;;;;20.37;100.00;99787.66;3057294;19;1101;-52
2022/08/21 01:44:59;;;;;;;;;;;;;;;20.36;100.00;99788.66;3057016;19;1022;-53
2022/08/21 01:46:02;;;;;;;;;;;;;;;20.34;100.00;99778.97;3057139;19;1039;-52
2022/08/21 01:47:08;;;;;;;;;;;;;;;20.36;100.00;99783.25;3056641;19;1031;-52
2022/08/21 01:48:09;;;;;;;;;;;;;;;20.36;100.00;99783.25;3056930;19;982;-52
2022/08/21 01:49:15;;;;;;;;;;;;;;;20.33;100.00;99778.13;3056430;19;952;-52
2022/08/21 01:50:17;;;;;;;;;;;;;;;20.33;100.00;99772.72;3056240;19;921;-55
2022/08/21 01:51:22;;;;;;;;;;;;;;;20.32;100.00;99787.28;3056265;19;1681;-52
2022/08/21 01:52:24;;;;;;;;;;;;;;;20.31;100.00;99780.16;3056401;19;984;-54
2022/08/21 01:53:28;;;;;;;;;;;;;;;20.28;100.00;99769.69;3057187;19;980;-51
2022/08/21 01:54:35;;;;;;;;;;;;;;;20.26;100.00;99774.44;3057220;19;917;-54
2022/08/21 01:55:39;;;;;;;;;;;;;;;20.26;100.00;99771.75;3056614;19;1032;-52
2022/08/21 01:56:43;;;;;;;;;;;;;;;20.22;100.00;99759.53;3057111;19;1163;-52
2022/08/21 01:57:47;;;;;;;;;;;;;;;20.21;100.00;99757.84;3049422;19;1843;-52
2022/08/21 01:58:49;;;;;;;;;;;;;;;20.20;100.00;99767.00;3048462;19;1067;-52
2022/08/21 01:59:54;;;;;;;;;;;;;;;20.17;100.00;99756.50;3048649;19;994;-52
2022/08/21 02:00:55;;;;;;;;;;;;;;;20.13;100.00;99755.19;3050634;19;873;-53
2022/08/21 02:02:00;;;;;;;;;;;;;;;20.12;100.00;99748.91;3050295;19;940;-53
2022/08/21 02:03:02;;;;;;;;;;;;;;;20.11;100.00;99751.78;3051194;19;923;-52
2022/08/21 02:04:06;;;;;;;;;;;;;;;20.11;100.00;99754.50;3052104;19;1486;-53
2022/08/21 02:05:09;;;;;;;;;;;;;;;20.10;100.00;99750.09;3056739;19;1023;-53
2022/08/21 02:06:17;;;;;;;;;;;;;;;20.09;100.00;99754.66;3055422;19;982;-51
2022/08/21 02:07:19;;;;;;;;;;;;;;;20.11;100.00;99751.78;3055682;19;940;-51
2022/08/21 02:08:24;;;;;;;;;;;;;;;20.12;100.00;99748.91;3055807;19;1137;-53
2022/08/21 02:09:26;;;;;;;;;;;;;;;20.15;100.00;99753.16;3056485;19;1214;-51
2022/08/21 02:10:32;;;;;;;;;;;;;;;20.16;100.00;99754.84;3056379;19;949;-52
2022/08/21 02:11:35;;;;;;;;;;;;;;;20.18;100.00;99749.22;3056643;19;1108;-51
2022/08/21 02:12:39;;;;;;;;;;;;;;;20.20;100.00;99753.44;3056427;19;979;-52
2022/08/21 02:13:41;;;;;;;;;;;;;;;20.20;100.00;99750.75;3056824;19;956;-51
2022/08/21 02:14:46;;;;;;;;;;;;;;;20.21;100.00;99757.00;3056145;19;1066;-51
2022/08/21 02:15:48;;;;;;;;;;;;;;;20.22;100.00;99753.28;3056941;19;1081;-51
2022/08/21 02:16:52;;;;;;;;;;;;;;;20.20;100.00;99750.75;3056338;19;1402;-52
2022/08/21 02:18:09;;;;;;;;;;;;;;;20.21;100.00;99752.44;3056560;19;1845;-51
2022/08/21 02:19:15;;;;;;;;;;;;;;;20.20;100.00;99753.44;3055022;19;1051;-51
2022/08/21 02:20:22;;;;;;;;;;;;;;;20.20;100.00;99755.31;3049468;19;1157;-51
2022/08/21 02:21:26;;;;;;;;;;;;;;;20.18;100.00;99749.22;3048590;19;1117;-51
2022/08/21 02:22:28;;;;;;;;;;;;;;;20.17;100.00;99755.66;3048332;19;1184;-51
2022/08/21 02:23:33;;;;;;;;;;;;;;;20.14;100.00;99746.03;3051362;19;1198;-51
2022/08/21 02:24:35;;;;;;;;;;;;;;;20.11;100.00;99747.22;3051811;19;1354;-50
2022/08/21 02:25:59;;;;;;;;;;;;;;;20.09;100.00;99743.00;3051195;19;1284;-52
2022/08/21 02:27:01;;;;;;;;;;;;;;;20.08;100.00;99744.00;3054656;19;1324;-51
2022/08/21 02:28:06;;;;;;;;;;;;;;;20.05;100.00;99741.63;3056766;19;948;-51
2022/08/21 02:29:08;;;;;;;;;;;;;;;20.03;100.00;99735.56;3056805;19;922;-51
2022/08/21 02:30:14;;;;;;;;;;;;;;;19.99;100.00;99726.09;3056108;19;1095;-51
2022/08/21 02:31:18;;;;;;;;;;;;;;;19.98;100.00;99729.81;3055923;19;1072;-50
2022/08/21 02:32:21;;;;;;;;;;;;;;;19.95;100.00;99722.03;3055826;19;1231;-50
2022/08/21 02:33:26;;;;;;;;;;;;;;;19.93;100.00;99726.75;3056411;19;1200;-52
2022/08/21 02:34:27;;;;;;;;;;;;;;;19.91;100.00;99726.13;3056615;19;1222;-51
2022/08/21 02:35:32;;;;;;;;;;;;;;;19.90;100.00;99721.72;3055791;19;1051;-51
2022/08/21 02:36:34;;;;;;;;;;;;;;;19.87;100.00;99722.06;3053964;19;1188;-52
2022/08/21 02:37:46;;;;;;;;;;;;;;;19.86;100.00;99720.38;3056567;19;1085;-50
2022/08/21 02:38:49;;;;;;;;;;;;;;;19.83;100.00;99720.69;3055601;19;1851;-51
2022/08/21 02:39:54;;;;;;;;;;;;;;;19.82;100.00;99719.84;3056022;19;1221;-52
2022/08/21 02:40:56;;;;;;;;;;;;;;;19.80;100.00;99721.91;3056368;19;972;-52
2022/08/21 02:42:00;;;;;;;;;;;;;;;19.80;100.00;99705.66;3052110;19;1660;-51
2022/08/21 02:43:05;;;;;;;;;;;;;;;19.75;100.00;99706.19;3048979;19;1003;-51
2022/08/21 02:44:07;;;;;;;;;;;;;;;19.74;100.00;99707.19;3049185;19;1319;-51
2022/08/21 02:45:12;;;;;;;;;;;;;;;19.72;100.00;99706.50;3050120;19;979;-51
2022/08/21 02:46:15;;;;;;;;;;;;;;;19.69;100.00;99693.31;3051191;19;1338;-50
2022/08/21 02:47:19;;;;;;;;;;;;;;;19.68;100.00;99696.22;3051488;19;1189;-51
2022/08/21 02:48:22;;;;;;;;;;;;;;;19.65;100.00;99692.00;3051103;19;1169;-50
2022/08/21 02:49:27;;;;;;;;;;;;;;;19.64;100.00;99701.13;3054751;19;1209;-50
2022/08/21 02:50:30;;;;;;;;;;;;;;;19.62;100.00;99710.44;3055572;19;1370;-52
2022/08/21 02:51:34;;;;;;;;;;;;;;;19.59;100.00;99699.94;3056687;19;1032;-50
2022/08/21 02:52:36;;;;;;;;;;;;;;;19.55;100.00;99693.19;3056292;19;1091;-51
2022/08/21 02:53:41;;;;;;;;;;;;;;;19.53;100.00;99692.50;3055948;19;1095;-52
2022/08/21 02:54:43;;;;;;;;;;;;;;;19.51;100.00;99691.84;3055768;19;1187;-51
2022/08/21 02:55:48;;;;;;;;;;;;;;;19.49;100.00;99691.16;3056189;19;933;-51
2022/08/21 02:56:50;;;;;;;;;;;;;;;19.45;100.00;99690.63;3056351;19;1108;-51
2022/08/21 02:57:55;;;;;;;;;;;;;;;19.42;100.00;99675.59;3055933;19;1623;-51
2022/08/21 02:58:57;;;;;;;;;;;;;;;19.41;100.00;99683.88;3055728;19;1834;-51
2022/08/21 03:00:01;;;;;;;;;;;;;;;19.40;100.00;99671.34;3055769;19;889;-50
2022/08/21 03:01:03;;;;;;;;;;;;;;;19.37;100.00;99672.53;3056024;19;1068;-51
2022/08/21 03:02:08;;;;;;;;;;;;;;;19.35;100.00;99681.84;3055538;19;1772;-53
2022/08/21 03:03:10;;;;;;;;;;;;;;;19.35;100.00;99679.13;3055606;19;921;-51
2022/08/21 03:04:15;;;;;;;;;;;;;;;19.35;100.00;99674.56;3053049;19;1045;-51
2022/08/21 03:05:17;;;;;;;;;;;;;;;19.33;100.00;99663.06;3048118;19;1132;-51
2022/08/21 03:06:22;;;;;;;;;;;;;;;19.34;100.00;99662.03;3047365;19;1037;-51
2022/08/21 03:07:24;;;;;;;;;;;;;;;19.32;100.00;99668.66;3049404;19;943;-50
2022/08/21 03:08:28;;;;;;;;;;;;;;;19.32;100.00;99666.78;3050938;19;1382;-51
2022/08/21 03:09:30;;;;;;;;;;;;;;;19.29;100.00;99661.72;3050388;19;1152;-50
2022/08/21 03:10:35;;;;;;;;;;;;;;;19.30;100.00;99665.28;3049984;19;1499;-50
2022/08/21 03:11:37;;;;;;;;;;;;;;;19.29;100.00;99663.59;3053715;19;1284;-50
2022/08/21 03:12:41;;;;;;;;;;;;;;;19.28;100.00;99661.91;3056319;19;1082;-50
2022/08/21 03:13:43;;;;;;;;;;;;;;;19.26;100.00;99664.78;3056279;19;1145;-51
2022/08/21 03:14:48;;;;;;;;;;;;;;;19.25;100.00;99659.53;3055295;19;1394;-51
2022/08/21 03:15:51;;;;;;;;;;;;;;;19.26;100.00;99663.91;3055706;19;1386;-51
2022/08/21 03:16:56;;;;;;;;;;;;;;;19.23;100.00;99658.84;3055314;19;1177;-51
2022/08/21 03:17:58;;;;;;;;;;;;;;;19.24;100.00;99660.53;3055938;19;1182;-51
2022/08/21 03:19:03;;;;;;;;;;;;;;;19.22;100.00;99662.56;3055059;19;1971;-51
2022/08/21 03:20:05;;;;;;;;;;;;;;;19.22;100.00;99662.56;3055768;19;1158;-51
2022/08/21 03:21:12;;;;;;;;;;;;;;;19.23;100.00;99661.53;3055527;19;948;-52
2022/08/21 03:22:14;;;;;;;;;;;;;;;19.24;100.00;99660.53;3055839;19;1277;-51
2022/08/21 03:23:19;;;;;;;;;;;;;;;19.23;100.00;99666.97;3055752;19;1009;-51
2022/08/21 03:24:22;;;;;;;;;;;;;;;19.22;100.00;99658.00;3056316;19;1004;-52
2022/08/21 03:25:27;;;;;;;;;;;;;;;19.22;100.00;99663.41;3054567;19;1622;-50
2022/08/21 03:26:43;;;;;;;;;;;;;;;19.22;100.00;99663.41;3051343;19;904;-50
2022/08/21 03:27:47;;;;;;;;;;;;;;;19.23;100.00;99666.97;3048395;19;1182;-51
2022/08/21 03:28:54;;;;;;;;;;;;;;;19.24;100.00;99657.84;3047982;19;1050;-51
2022/08/21 03:29:56;;;;;;;;;;;;;;;19.25;100.00;99659.53;3049015;19;1027;-51
2022/08/21 03:31:00;;;;;;;;;;;;;;;19.27;100.00;99657.50;3050802;19;940;-51
2022/08/21 03:32:02;;;;;;;;;;;;;;;19.26;100.00;99651.25;3050994;19;1255;-50
2022/08/21 03:33:07;;;;;;;;;;;;;;;19.28;100.00;99657.34;3050507;19;1313;-50
2022/08/21 03:34:15;;;;;;;;;;;;;;;19.30;100.00;99654.47;3054460;19;925;-51
2022/08/21 03:35:17;;;;;;;;;;;;;;;19.31;100.00;99650.75;3055007;19;995;-51
2022/08/21 03:36:22;;;;;;;;;;;;;;;19.32;100.00;99655.13;3054999;19;1223;-51
2022/08/21 03:37:24;;;;;;;;;;;;;;;19.33;100.00;99659.50;3055455;19;905;-51
2022/08/21 03:38:29;;;;;;;;;;;;;;;19.33;100.00;99660.34;3055775;19;948;-51
2022/08/21 03:39:31;;;;;;;;;;;;;;;19.35;100.00;99661.03;3055376;19;1844;-51
2022/08/21 03:40:35;;;;;;;;;;;;;;;19.36;100.00;99653.75;3055175;19;991;-51
2022/08/21 03:41:40;;;;;;;;;;;;;;;19.35;100.00;99661.03;3055146;19;1366;-51
2022/08/21 03:42:41;;;;;;;;;;;;;;;19.37;100.00;99663.56;3055521;19;1108;-51
2022/08/21 03:43:46;;;;;;;;;;;;;;;19.39;100.00;99658.84;3055309;19;1144;-51
2022/08/21 03:44:48;;;;;;;;;;;;;;;19.39;100.00;99667.81;3055404;19;971;-51
2022/08/21 03:45:52;;;;;;;;;;;;;;;19.43;100.00;99668.31;3055207;19;1049;-52
2022/08/21 03:46:55;;;;;;;;;;;;;;;19.47;100.00;99671.50;3055697;19;921;-53
2022/08/21 03:48:00;;;;;;;;;;;;;;;19.49;100.00;99659.53;3055019;19;1444;-51
2022/08/21 03:49:02;;;;;;;;;;;;;;;19.52;100.00;99664.59;3051710;19;1261;-53
2022/08/21 03:50:07;;;;;;;;;;;;;;;19.58;100.00;99666.59;3048171;19;1104;-51
2022/08/21 03:51:09;;;;;;;;;;;;;;;19.64;100.00;99676.75;3047763;19;1079;-51
2022/08/21 03:52:14;;;;;;;;;;;;;;;19.68;100.00;99675.38;3048545;19;1268;-51
2022/08/21 03:53:16;;;;;;;;;;;;;;;19.76;100.00;99683.50;3049769;19;1392;-52
2022/08/21 03:54:21;;;;;;;;;;;;;;;19.81;100.00;99687.53;3049604;19;1220;-51
2022/08/21 03:55:23;;;;;;;;;;;;;;;19.87;100.00;99697.69;3050736;19;1335;-51
2022/08/21 03:56:28;;;;;;;;;;;;;;;19.91;100.00;99690.91;3053902;19;914;-51
2022/08/21 03:57:29;;;;;;;;;;;;;;;19.95;100.00;99703.91;3054843;19;1037;-51
2022/08/21 03:58:34;;;;;;;;;;;;;;;20.01;100.00;99710.53;3053637;19;1112;-51
2022/08/21 03:59:36;;;;;;;;;;;;;;;20.07;100.00;99707.09;3055046;19;1842;-51
2022/08/21 04:00:40;;;;;;;;;;;;;;;20.13;100.00;99711.84;3055307;19;999;-52
2022/08/21 04:01:58;;;;;;;;;;;;;;;20.20;100.00;99715.53;3055231;19;1128;-52
2022/08/21 04:03:01;;;;;;;;;;;;;;;20.29;100.00;99717.16;3055379;19;1061;-51
2022/08/21 04:04:06;;;;;;;;;;;;;;;20.38;100.00;99724.31;3055239;19;1094;-52
2022/08/21 04:05:08;;;;;;;;;;;;;;;20.43;100.00;99724.59;3055092;19;1002;-51
2022/08/21 04:06:12;;;;;;;;;;;;;;;20.54;100.00;99741.50;3055512;19;1078;-51
2022/08/21 04:07:14;;;;;;;;;;;;;;;20.70;100.00;99736.00;3055238;19;1182;-51
2022/08/21 04:08:19;;;;;;;;;;;;;;;20.85;100.00;99748.63;3054691;19;994;-51
2022/08/21 04:09:21;;;;;;;;;;;;;;;21.00;100.00;99753.28;3054917;19;1620;-52
2022/08/21 04:10:27;;;;;;;;;;;;;;;21.15;100.00;99763.16;3055528;19;1032;-52
2022/08/21 04:11:29;;;;;;;;;;;;;;;21.30;100.00;99770.56;3050366;19;1279;-51
2022/08/21 04:12:34;;;;;;;;;;;;;;;21.44;100.00;99775.22;3047998;19;1350;-51
2022/08/21 04:13:36;;;;;;;;;;;;;;;21.60;100.00;99790.53;3048120;19;1140;-52
2022/08/21 04:14:47;;;;;;;;;;;;;;;21.74;100.00;99801.44;3050071;19;1380;-52
2022/08/21 04:15:49;;;;;;;;;;;;;;;21.87;100.00;99811.69;3050620;19;1176;-51
2022/08/21 04:16:54;;;;;;;;;;;;;;;22.01;100.00;99812.78;3049832;19;1244;-52
2022/08/21 04:17:56;;;;;;;;;;;;;;;22.14;100.00;99824.72;3050112;19;1011;-51
2022/08/21 04:19:01;;;;;;;;;;;;;;;22.26;100.00;99835.97;3054593;19;1177;-51
2022/08/21 04:20:03;;;;;;;;;;;;;;;22.39;100.00;99843.47;3054618;19;1854;-52
2022/08/21 04:21:08;;;;;;;;;;;;;;;22.49;100.00;99850.31;3054785;19;1246;-51
2022/08/21 04:22:11;;;;;;;;;;;;;;;22.66;100.00;99850.16;3054434;19;1147;-51
2022/08/21 04:23:15;;;;;;;;;;;;;;;22.78;100.00;99860.41;3054423;19;1093;-51
2022/08/21 04:24:25;;;;;;;;;;;;;;;22.88;100.00;99860.13;3055182;19;1011;-51
2022/08/21 04:25:33;;;;;;;;;;;;;;;23.03;100.00;99869.13;3054755;19;1146;-52
2022/08/21 04:26:35;;;;;;;;;;;;;;;23.18;100.00;99872.66;3054792;19;937;-51
2022/08/21 04:27:40;;;;;;;;;;;;;;;23.32;100.00;99877.22;3054984;19;1684;-51
2022/08/21 04:28:41;;;;;;;;;;;;;;;23.50;100.00;99881.41;3055255;19;976;-51
2022/08/21 04:29:47;;;;;;;;;;;;;;;23.65;100.00;99880.34;3055051;19;992;-52
2022/08/21 04:30:50;;;;;;;;;;;;;;;23.82;100.00;99886.38;3054915;19;1008;-52
2022/08/21 04:31:54;;;;;;;;;;;;;;;23.98;100.00;99886.13;3054680;19;1700;-52
2022/08/21 04:32:57;;;;;;;;;;;;;;;24.19;100.00;99895.31;3055435;19;1264;-51
2022/08/21 04:34:02;;;;;;;;;;;;;;;24.38;100.00;99902.88;3050124;19;1134;-53
2022/08/21 04:35:05;;;;;;;;;;;;;;;24.56;100.00;99907.81;3047668;19;1055;-51
2022/08/21 04:36:10;;;;;;;;;;;;;;;24.70;100.00;99910.44;3046494;19;1055;-51
2022/08/21 04:37:12;;;;;;;;;;;;;;;24.77;100.00;99913.19;3048944;19;1674;-51
2022/08/21 04:38:17;;;;;;;;;;;;;;;24.95;100.00;99920.91;3050015;19;1572;-52
2022/08/21 04:39:18;;;;;;;;;;;;;;;25.09;100.00;99919.94;3050512;19;961;-53
2022/08/21 04:40:24;;;;;;;;;;;;;;;25.23;100.00;99926.31;3049233;19;1846;-52
2022/08/21 04:41:26;;;;;;;;;;;;;;;25.38;100.00;99922.38;3054142;19;1141;-51
2022/08/21 04:42:32;;;;;;;;;;;;;;;25.52;100.00;99933.34;3053467;19;1191;-52
2022/08/21 04:43:33;;;;;;;;;;;;;;;25.66;100.00;99935.97;3055543;19;1054;-52
2022/08/21 04:44:38;;;;;;;;;;;;;;;25.80;100.00;99945.06;3054446;19;1091;-55
2022/08/21 04:45:41;;;;;;;;;;;;;;;25.89;100.00;99941.06;3054790;19;1743;-53
2022/08/21 04:46:45;;;;;;;;;;;;;;;25.94;100.00;99944.03;3054245;19;1121;-52
2022/08/21 04:47:51;;;;;;;;;;;;;;;25.92;100.00;99946.13;3055138;19;1105;-53
2022/08/21 04:48:56;;;;;;;;;;;;;;;25.88;100.00;99944.84;3054526;19;1189;-51
2022/08/21 04:49:58;;;;;;;;;;;;;;;25.81;100.00;99957.69;3054779;19;1074;-52
2022/08/21 04:51:04;;;;;;;;;;;;;;;25.67;100.00;99953.22;3054281;19;1115;-51
2022/08/21 04:52:06;;;;;;;;;;;;;;;25.53;100.00;99952.28;3054645;19;1011;-51
2022/08/21 04:53:15;;;;;;;;;;;;;;;25.46;100.00;99948.69;3054297;19;1384;-52
2022/08/21 04:54:18;;;;;;;;;;;;;;;25.41;100.00;99956.66;3054792;19;1238;-51
2022/08/21 04:55:22;;;;;;;;;;;;;;;25.39;100.00;99953.28;3051349;19;1508;-52
2022/08/21 04:56:32;;;;;;;;;;;;;;;25.37;100.00;99956.19;3048573;19;1087;-51
2022/08/21 04:57:37;;;;;;;;;;;;;;;25.38;100.00;99954.31;3047677;19;900;-52
2022/08/21 04:58:52;;;;;;;;;;;;;;;25.30;100.00;99940.84;3047128;19;1170;-52
2022/08/21 04:59:54;;;;;;;;;;;;;;;25.34;100.00;99955.78;3051989;19;1384;-51
2022/08/21 05:00:59;;;;;;;;;;;;;;;25.32;100.00;99947.78;3051961;19;1854;-52
2022/08/21 05:02:02;;;;;;;;;;;;;;;25.33;100.00;99949.47;3052940;19;1021;-60
2022/08/21 05:03:06;;;;;;;;;;;;;;;25.29;100.00;99956.38;3053502;19;884;-51
2022/08/21 05:04:09;;;;;;;;;;;;;;;25.28;100.00;99959.31;3056426;19;1035;-53
2022/08/21 05:05:13;;;;;;;;;;;;;;;25.28;100.00;99954.69;3056748;19;1077;-53
2022/08/21 05:06:15;;;;;;;;;;;;;;;25.26;100.00;99956.78;3057707;19;1258;-52
2022/08/21 05:07:24;;;;;;;;;;;;;;;25.20;100.00;99964.94;3057054;19;1060;-53
2022/08/21 05:08:43;;;;;;;;;;;;;;;25.17;100.00;99958.00;3057559;19;1096;-52
2022/08/21 05:09:48;;;;;;;;;;;;;;;25.06;100.00;99961.31;3056410;19;1160;-52
2022/08/21 05:10:50;;;;;;;;;;;;;;;25.05;100.00;99955.00;3056612;19;1138;-52
2022/08/21 05:11:54;;;;;;;;;;;;;;;25.07;100.00;99958.38;3056010;19;1108;-52
2022/08/21 05:12:56;;;;;;;;;;;;;;;25.09;100.00;99955.44;3056223;19;976;-52
2022/08/21 05:14:01;;;;;;;;;;;;;;;25.10;100.00;99947.06;3056680;19;1790;-52
2022/08/21 05:15:03;;;;;;;;;;;;;;;25.09;100.00;99955.44;3057458;19;1046;-53
2022/08/21 05:16:08;;;;;;;;;;;;;;;25.08;100.00;99959.22;3057387;19;1038;-51
2022/08/21 05:17:09;;;;;;;;;;;;;;;25.11;100.00;99953.38;3057358;19;1167;-51
2022/08/21 05:18:14;;;;;;;;;;;;;;;25.16;100.00;99961.78;3055621;19;1086;-52
2022/08/21 05:19:16;;;;;;;;;;;;;;;25.20;100.00;99952.13;3049599;19;1144;-52
2022/08/21 05:20:21;;;;;;;;;;;;;;;25.25;100.00;99954.25;3049083;19;1230;-52
2022/08/21 05:21:22;;;;;;;;;;;;;;;25.28;100.00;99954.69;3049211;19;1845;-52
2022/08/21 05:22:27;;;;;;;;;;;;;;;25.31;100.00;99958.91;3052329;19;1159;-52
2022/08/21 05:23:29;;;;;;;;;;;;;;;25.30;100.00;99952.59;3052883;19;1157;-52
2022/08/21 05:24:33;;;;;;;;;;;;;;;25.32;100.00;99960.59;3052327;19;891;-52
2022/08/21 05:25:35;;;;;;;;;;;;;;;25.27;100.00;99953.00;3053659;19;1192;-51
2022/08/21 05:26:40;;;;;;;;;;;;;;;25.25;100.00;99960.56;3057024;19;1181;-51
2022/08/21 05:27:49;;;;;;;;;;;;;;;25.26;100.00;99956.78;3057584;19;940;-53
2022/08/21 05:28:53;;;;;;;;;;;;;;;25.23;100.00;99946.28;3057190;19;959;-53
2022/08/21 05:29:58;;;;;;;;;;;;;;;25.25;100.00;99948.78;3057215;19;1082;-53
2022/08/21 05:31:00;;;;;;;;;;;;;;;25.26;100.00;99951.31;3056501;19;984;-52
2022/08/21 05:32:06;;;;;;;;;;;;;;;25.25;100.00;99944.16;3056768;19;1210;-52
2022/08/21 05:33:08;;;;;;;;;;;;;;;25.24;100.00;99942.47;3056392;19;1127;-52
2022/08/21 05:34:12;;;;;;;;;;;;;;;25.21;100.00;99953.81;3056185;19;1224;-52